createdAt,value
2023-01-19T00:02:24.233Z,2.15
2023-01-19T00:04:53.575Z,2.12
2023-01-19T00:07:22.950Z,2.07
2023-01-19T00:09:52.369Z,1.92
2023-01-19T00:12:21.725Z,1.80
2023-01-19T00:14:51.083Z,1.69
2023-01-19T00:17:23.050Z,1.55
2023-01-19T00:19:52.420Z,1.53
2023-01-19T00:22:21.782Z,1.60
2023-01-19T00:24:51.194Z,1.70
2023-01-19T00:27:20.536Z,1.78
2023-01-19T00:29:49.890Z,1.80
2023-01-19T00:32:20.452Z,1.76
2023-01-19T00:34:52.516Z,1.78
2023-01-19T00:37:21.943Z,1.78
2023-01-19T00:39:51.254Z,1.77
2023-01-19T00:42:33.092Z,1.58
2023-01-19T00:45:02.436Z,1.60
2023-01-19T00:47:32.389Z,1.72
2023-01-19T00:50:04.452Z,1.75
2023-01-19T00:52:33.771Z,1.76
2023-01-19T00:55:03.232Z,1.76
2023-01-19T00:57:32.580Z,1.79
2023-01-19T01:00:02.016Z,1.79
2023-01-19T01:02:31.575Z,1.81
2023-01-19T01:05:02.885Z,1.83
2023-01-19T01:07:40.711Z,1.81
2023-01-19T01:10:10.752Z,1.82
2023-01-19T01:12:40.106Z,1.75
2023-01-19T01:15:10.292Z,1.73
2023-01-19T01:17:47.733Z,1.66
2023-01-19T01:20:18.474Z,1.60
2023-01-19T01:22:51.455Z,1.55
2023-01-19T01:25:22.705Z,1.54
2023-01-19T01:27:52.125Z,1.58
2023-01-19T01:30:21.569Z,1.62
2023-01-19T01:32:50.928Z,1.60
2023-01-19T01:35:20.422Z,1.55
2023-01-19T01:37:52.365Z,1.54
2023-01-19T01:40:21.904Z,1.53
2023-01-19T01:42:51.262Z,1.43
2023-01-19T01:45:30.124Z,1.52
2023-01-19T01:48:00.609Z,1.58
2023-01-19T01:50:30.676Z,1.57
2023-01-19T01:53:07.599Z,1.60
2023-01-19T01:55:37.803Z,1.52
2023-01-19T01:58:07.322Z,1.49
2023-01-19T02:00:56.788Z,1.56
2023-01-19T02:03:23.589Z,1.61
2023-01-19T02:05:53.023Z,1.57
2023-01-19T02:08:40.196Z,1.61
2023-01-19T02:11:21.973Z,1.63
2023-01-19T02:13:51.283Z,1.68
2023-01-19T02:16:20.760Z,1.69
2023-01-19T02:18:50.254Z,1.76
2023-01-19T02:21:21.595Z,1.80
2023-01-19T02:23:53.835Z,1.84
2023-01-19T02:26:23.891Z,1.87
2023-01-19T02:28:55.055Z,1.05
2023-01-19T02:31:24.477Z,1.22
2023-01-19T02:33:54.346Z,1.53
2023-01-19T02:36:26.001Z,1.75
2023-01-19T02:38:57.977Z,1.88
2023-01-19T02:41:27.804Z,1.96
2023-01-19T02:43:57.354Z,2.04
2023-01-19T02:46:26.685Z,2.11
2023-01-19T02:48:55.993Z,2.19
2023-01-19T02:51:25.782Z,2.13
2023-01-19T02:54:00.719Z,2.02
2023-01-19T02:56:42.383Z,2.04
2023-01-19T02:59:13.977Z,1.99
2023-01-19T03:01:46.847Z,1.87
2023-01-19T03:04:17.652Z,1.81
2023-01-19T03:06:47.640Z,1.82
2023-01-19T03:09:22.148Z,1.94
2023-01-19T03:11:54.070Z,2.13
2023-01-19T03:14:24.559Z,2.22
2023-01-19T03:16:55.298Z,2.25
2023-01-19T03:19:27.298Z,2.20
2023-01-19T03:21:57.585Z,2.27
2023-01-19T03:24:29.425Z,2.40
2023-01-19T03:26:59.402Z,2.22
2023-01-19T03:29:29.421Z,2.32
2023-01-19T03:31:58.666Z,1.17
2023-01-19T03:34:28.609Z,1.06
2023-01-19T03:36:58.535Z,1.33
2023-01-19T03:39:30.513Z,1.73
2023-01-19T03:42:01.492Z,2.09
2023-01-19T03:44:31.108Z,2.28
2023-01-19T03:47:00.571Z,2.42
2023-01-19T03:49:29.861Z,2.47
2023-01-19T03:51:59.163Z,2.50
2023-01-19T03:54:31.052Z,2.50
2023-01-19T03:57:00.283Z,2.56
2023-01-19T03:59:29.575Z,2.59
2023-01-19T04:01:58.848Z,2.71
2023-01-19T04:04:28.294Z,2.76
2023-01-19T04:06:57.721Z,2.79
2023-01-19T04:09:27.380Z,2.82
2023-01-19T04:12:01.589Z,2.73
2023-01-19T04:14:30.857Z,2.73
2023-01-19T04:17:00.089Z,2.71
2023-01-19T04:19:29.353Z,2.73
2023-01-19T04:21:58.632Z,2.72
2023-01-19T04:24:28.103Z,2.77
2023-01-19T04:27:00.084Z,2.78
2023-01-19T04:29:29.317Z,2.85
2023-01-19T04:31:58.613Z,2.98
2023-01-19T04:34:27.859Z,3.05
2023-01-19T04:36:57.120Z,3.10
2023-01-19T04:39:26.361Z,3.11
2023-01-19T04:41:57.495Z,3.14
2023-01-19T04:44:29.344Z,3.16
2023-01-19T04:46:58.688Z,3.09
2023-01-19T04:49:27.943Z,3.06
2023-01-19T04:51:57.337Z,3.03
2023-01-19T04:54:27.163Z,2.98
2023-01-19T04:56:56.539Z,2.96
2023-01-19T04:59:25.830Z,2.97
2023-01-19T05:01:58.770Z,3.00
2023-01-19T05:04:28.328Z,3.06
2023-01-19T05:06:58.380Z,3.11
2023-01-19T05:09:28.560Z,3.19
2023-01-19T05:11:57.830Z,3.25
2023-01-19T05:14:27.056Z,3.25
2023-01-19T05:16:58.924Z,3.21
2023-01-19T05:19:28.185Z,3.27
2023-01-19T05:21:57.657Z,3.35
2023-01-19T05:24:26.931Z,3.39
2023-01-19T05:26:56.222Z,3.46
2023-01-19T05:29:25.504Z,3.53
2023-01-19T05:31:54.792Z,3.52
2023-01-19T05:34:26.702Z,3.52
2023-01-19T05:36:55.944Z,3.55
2023-01-19T05:39:26.173Z,3.61
2023-01-19T05:41:55.471Z,3.67
2023-01-19T05:44:24.864Z,3.65
2023-01-19T05:46:54.193Z,3.60
2023-01-19T05:49:26.089Z,3.56
2023-01-19T05:51:55.384Z,3.52
2023-01-19T05:54:24.643Z,3.62
2023-01-19T05:56:53.957Z,3.64
2023-01-19T05:59:24.256Z,3.61
2023-01-19T06:01:53.838Z,3.56
2023-01-19T06:04:23.121Z,3.63
2023-01-19T06:06:55.020Z,3.57
2023-01-19T06:09:24.331Z,3.69
2023-01-19T06:11:54.273Z,3.45
2023-01-19T06:14:23.511Z,3.24
2023-01-19T06:16:52.856Z,3.23
2023-01-19T06:19:22.174Z,3.03
2023-01-19T06:21:52.570Z,3.15
2023-01-19T06:24:25.358Z,3.36
2023-01-19T06:26:54.886Z,3.44
2023-01-19T06:29:24.286Z,3.50
2023-01-19T06:31:53.614Z,3.62
2023-01-19T06:34:23.273Z,3.71
2023-01-19T06:36:52.564Z,3.67
2023-01-19T06:39:24.416Z,3.77
2023-01-19T06:41:53.695Z,3.74
2023-01-19T06:44:22.959Z,3.70
2023-01-19T06:46:52.194Z,3.76
2023-01-19T06:49:41.564Z,3.77
2023-01-19T06:52:11.563Z,3.65
2023-01-19T06:54:43.443Z,3.68
2023-01-19T06:57:14.884Z,3.71
2023-01-19T06:59:44.164Z,3.64
2023-01-19T07:02:27.283Z,3.62
2023-01-19T07:04:57.896Z,3.44
2023-01-19T07:07:27.307Z,3.57
2023-01-19T07:09:59.193Z,3.71
2023-01-19T07:12:28.443Z,3.78
2023-01-19T07:14:57.758Z,3.76
2023-01-19T07:17:27.026Z,3.72
2023-01-19T07:19:56.324Z,3.75
2023-01-19T07:22:25.803Z,3.78
2023-01-19T07:24:55.102Z,3.74
2023-01-19T07:27:27.486Z,3.68
2023-01-19T07:29:56.780Z,3.66
2023-01-19T07:32:26.072Z,3.64
2023-01-19T07:34:55.371Z,3.63
2023-01-19T07:37:24.657Z,3.61
2023-01-19T07:39:53.916Z,3.56
2023-01-19T07:42:23.295Z,3.53
2023-01-19T07:44:55.186Z,3.50
2023-01-19T07:47:24.515Z,3.43
2023-01-19T07:49:53.786Z,3.50
2023-01-19T07:52:23.211Z,3.48
2023-01-19T07:54:53.030Z,3.44
2023-01-19T07:57:22.627Z,3.39
2023-01-19T07:59:51.952Z,3.33
2023-01-19T08:02:23.845Z,3.29
2023-01-19T08:04:53.152Z,3.37
2023-01-19T08:07:22.444Z,3.50
2023-01-19T08:09:51.696Z,3.66
2023-01-19T08:12:21.029Z,3.75
2023-01-19T08:14:50.390Z,3.94
2023-01-19T08:17:19.901Z,4.16
2023-01-19T08:19:51.776Z,4.51
2023-01-19T08:22:21.100Z,4.90
2023-01-19T08:24:51.084Z,5.14
2023-01-19T08:27:20.425Z,5.43
2023-01-19T08:29:49.680Z,5.79
2023-01-19T08:32:19.044Z,6.09
2023-01-19T08:34:48.397Z,6.04
2023-01-19T08:37:20.282Z,5.69
2023-01-19T08:39:49.569Z,5.64
2023-01-19T08:42:18.882Z,5.49
2023-01-19T08:44:57.552Z,5.51
2023-01-19T08:47:27.287Z,5.53
2023-01-19T08:49:56.629Z,5.58
2023-01-19T08:52:29.487Z,4.87
2023-01-19T08:54:58.725Z,4.52
2023-01-19T08:57:28.023Z,4.32
2023-01-19T08:59:57.328Z,4.30
2023-01-19T09:02:26.747Z,4.69
2023-01-19T09:04:56.063Z,4.95
2023-01-19T09:07:30.573Z,4.49
2023-01-19T09:10:01.754Z,4.49
2023-01-19T09:12:31.055Z,4.78
2023-01-19T09:15:00.344Z,4.64
2023-01-19T09:17:29.813Z,4.92
2023-01-19T09:19:59.192Z,4.66
2023-01-19T09:22:31.107Z,4.67
2023-01-19T09:25:00.426Z,4.83
2023-01-19T09:27:29.768Z,5.07
2023-01-19T09:29:59.096Z,5.24
2023-01-19T09:32:28.606Z,5.24
2023-01-19T09:34:58.041Z,5.16
2023-01-19T09:37:27.502Z,5.09
2023-01-19T09:39:59.545Z,4.93
2023-01-19T09:42:30.109Z,4.92
2023-01-19T09:44:59.555Z,4.98
2023-01-19T09:47:30.062Z,4.91
2023-01-19T09:50:01.125Z,4.63
2023-01-19T09:52:30.487Z,4.68
2023-01-19T09:55:02.558Z,4.65
2023-01-19T09:57:32.314Z,4.58
2023-01-19T10:00:01.784Z,4.48
2023-01-19T10:02:33.542Z,4.51
2023-01-19T10:05:03.239Z,4.40
2023-01-19T10:07:36.056Z,4.48
2023-01-19T10:10:10.740Z,4.42
2023-01-19T10:12:43.264Z,4.47
2023-01-19T10:15:18.110Z,4.54
2023-01-19T10:17:49.993Z,4.71
2023-01-19T10:20:23.089Z,4.78
2023-01-19T10:22:52.621Z,4.87
2023-01-19T10:25:25.386Z,5.13
2023-01-19T10:27:54.908Z,5.26
2023-01-19T10:30:25.136Z,5.08
2023-01-19T10:32:54.563Z,4.94
2023-01-19T10:35:25.320Z,5.28
2023-01-19T10:37:56.213Z,5.37
2023-01-19T10:40:32.115Z,5.31
2023-01-19T10:43:02.445Z,5.50
2023-01-19T10:45:34.849Z,5.73
2023-01-19T10:48:07.746Z,5.75
2023-01-19T10:50:37.612Z,5.43
2023-01-19T10:53:07.594Z,5.61
2023-01-19T10:55:40.121Z,6.00
2023-01-19T10:58:09.996Z,6.30
2023-01-19T11:00:39.981Z,6.42
2023-01-19T11:03:24.034Z,6.64
2023-01-19T11:05:53.576Z,6.77
2023-01-19T11:08:24.997Z,6.81
2023-01-19T11:11:02.488Z,6.64
2023-01-19T11:13:31.829Z,6.34
2023-01-19T11:16:01.569Z,6.37
2023-01-19T11:18:31.707Z,6.25
2023-01-19T11:21:02.315Z,6.12
2023-01-19T11:23:31.885Z,5.98
2023-01-19T11:26:04.305Z,5.95
2023-01-19T11:28:34.543Z,5.75
2023-01-19T11:31:04.367Z,5.67
2023-01-19T11:33:36.667Z,5.67
2023-01-19T11:36:07.305Z,5.68
2023-01-19T11:38:40.029Z,5.48
2023-01-19T11:41:14.436Z,5.21
2023-01-19T11:43:49.204Z,4.87
2023-01-19T11:46:19.067Z,4.76
2023-01-19T11:48:50.117Z,4.81
2023-01-19T11:51:20.042Z,5.07
2023-01-19T11:53:50.099Z,5.38
2023-01-19T11:56:23.842Z,5.63
2023-01-19T11:58:53.176Z,5.97
2023-01-19T12:01:25.001Z,6.34
2023-01-19T12:03:56.050Z,6.54
2023-01-19T12:06:27.571Z,6.76
2023-01-19T12:08:58.182Z,6.83
2023-01-19T12:11:37.271Z,6.62
2023-01-19T12:14:06.675Z,6.50
2023-01-19T12:16:44.896Z,6.33
2023-01-19T12:19:17.356Z,6.05
2023-01-19T12:21:48.245Z,5.90
2023-01-19T12:24:36.353Z,5.91
2023-01-19T12:27:23.253Z,5.82
2023-01-19T12:29:52.627Z,5.88
2023-01-19T12:32:22.939Z,6.00
2023-01-19T12:34:52.433Z,6.19
2023-01-19T12:37:32.277Z,6.09
2023-01-19T12:40:01.819Z,6.19
2023-01-19T12:42:34.113Z,6.54
2023-01-19T12:45:07.964Z,6.94
2023-01-19T12:47:37.543Z,6.88
2023-01-19T12:50:08.070Z,6.85
2023-01-19T12:52:39.395Z,6.78
2023-01-19T12:55:19.749Z,6.69
2023-01-19T12:57:59.576Z,6.70
2023-01-19T13:00:35.942Z,6.55
2023-01-19T13:03:05.951Z,6.52
2023-01-19T13:05:59.135Z,6.57
2023-01-19T13:08:30.042Z,6.47
2023-01-19T13:11:15.282Z,6.70
2023-01-19T13:13:48.025Z,6.56
2023-01-19T13:16:32.559Z,6.51
2023-01-19T13:19:02.538Z,6.60
2023-01-19T13:21:32.801Z,6.78
2023-01-19T13:24:02.616Z,6.77
2023-01-19T13:26:32.694Z,6.57
2023-01-19T13:29:05.679Z,6.54
2023-01-19T13:31:36.866Z,6.48
2023-01-19T13:34:06.275Z,6.45
2023-01-19T13:36:35.992Z,6.42
2023-01-19T13:39:06.145Z,6.51
2023-01-19T13:41:35.884Z,6.61
2023-01-19T13:44:08.228Z,6.68
2023-01-19T13:46:38.661Z,6.62
2023-01-19T13:49:12.751Z,6.65
2023-01-19T13:51:42.099Z,6.81
2023-01-19T13:54:16.180Z,6.95
2023-01-19T13:56:50.158Z,6.85
2023-01-19T13:59:22.169Z,6.67
2023-01-19T14:01:54.312Z,6.43
2023-01-19T14:04:30.646Z,6.44
2023-01-19T14:07:00.413Z,6.38
2023-01-19T14:09:29.884Z,6.37
2023-01-19T14:12:14.207Z,6.34
2023-01-19T14:14:46.852Z,6.34
2023-01-19T14:17:26.180Z,6.43
2023-01-19T14:19:55.767Z,6.38
2023-01-19T14:22:25.157Z,6.31
2023-01-19T14:24:54.656Z,6.37
2023-01-19T14:27:24.840Z,6.29
2023-01-19T14:29:57.231Z,6.37
2023-01-19T14:32:27.979Z,6.40
2023-01-19T14:35:12.609Z,6.46
2023-01-19T14:37:48.938Z,6.58
2023-01-19T14:40:22.147Z,6.57
2023-01-19T14:42:53.024Z,6.72
2023-01-19T14:45:25.668Z,6.77
2023-01-19T14:47:59.591Z,6.66
2023-01-19T14:50:30.396Z,6.67
2023-01-19T14:53:00.941Z,6.81
2023-01-19T14:55:32.966Z,6.99
2023-01-19T14:58:08.449Z,6.99
2023-01-19T15:00:44.132Z,7.11
2023-01-19T15:03:43.348Z,7.20
2023-01-19T15:06:28.261Z,7.26
2023-01-19T15:09:00.510Z,7.36
2023-01-19T15:11:32.984Z,7.36
2023-01-19T15:14:23.720Z,7.41
2023-01-19T15:17:13.789Z,7.35
2023-01-19T15:19:47.211Z,7.07
2023-01-19T15:22:18.078Z,6.96
2023-01-19T15:24:52.569Z,7.04
2023-01-19T15:27:27.659Z,7.08
2023-01-19T15:30:00.470Z,7.14
2023-01-19T15:32:51.570Z,7.19
2023-01-19T15:35:29.362Z,7.20
2023-01-19T15:38:06.318Z,6.94
2023-01-19T15:40:37.200Z,6.86
2023-01-19T15:43:06.779Z,6.63
2023-01-19T15:45:39.231Z,6.64
2023-01-19T15:48:09.234Z,6.57
2023-01-19T15:50:41.779Z,6.50
2023-01-19T15:53:16.136Z,6.57
2023-01-19T15:55:48.853Z,6.72
2023-01-19T15:58:21.951Z,6.83
2023-01-19T16:00:58.903Z,6.89
2023-01-19T16:03:33.268Z,6.90
2023-01-19T16:06:10.931Z,6.88
2023-01-19T16:08:48.057Z,6.86
2023-01-19T16:11:26.985Z,6.81
2023-01-19T16:14:00.337Z,6.77
2023-01-19T16:16:30.596Z,6.60
2023-01-19T16:19:00.933Z,6.54
2023-01-19T16:21:36.484Z,6.57
2023-01-19T16:24:11.168Z,6.54
2023-01-19T16:26:41.168Z,6.58
2023-01-19T16:29:15.617Z,6.62
2023-01-19T16:31:53.913Z,6.58
2023-01-19T16:34:48.741Z,6.54
2023-01-19T16:37:32.767Z,6.41
2023-01-19T16:40:05.389Z,6.28
2023-01-19T16:42:39.220Z,6.21
2023-01-19T16:45:09.302Z,6.14
2023-01-19T16:47:39.890Z,6.06
2023-01-19T16:50:14.590Z,5.97
2023-01-19T16:52:47.428Z,5.98
2023-01-19T16:58:16.418Z,5.97
2023-01-19T17:00:46.285Z,5.89
2023-01-19T17:03:16.989Z,5.85
2023-01-19T17:05:52.658Z,5.71
2023-01-19T17:08:29.009Z,5.62
2023-01-19T17:10:58.837Z,5.61
2023-01-19T17:13:29.670Z,5.60
2023-01-19T17:16:02.294Z,5.60
2023-01-19T17:18:31.951Z,5.56
2023-01-19T17:21:03.225Z,5.49
2023-01-19T17:23:36.498Z,5.50
2023-01-19T17:26:06.406Z,5.50
2023-01-19T17:28:36.267Z,5.44
2023-01-19T17:31:07.317Z,5.44
2023-01-19T17:33:37.203Z,5.44
2023-01-19T17:36:06.883Z,5.39
2023-01-19T17:38:39.110Z,5.35
2023-01-19T17:41:14.441Z,5.31
2023-01-19T17:43:44.019Z,5.25
2023-01-19T17:46:13.600Z,5.21
2023-01-19T17:48:43.146Z,5.19
2023-01-19T17:51:12.850Z,5.15
2023-01-19T17:53:44.906Z,5.08
2023-01-19T17:56:14.734Z,4.97
2023-01-19T17:58:44.234Z,4.87
2023-01-19T18:01:14.452Z,4.78
2023-01-19T18:03:43.893Z,4.77
2023-01-19T18:06:13.378Z,4.74
2023-01-19T18:08:46.376Z,4.70
2023-01-19T18:11:15.893Z,4.65
2023-01-19T18:13:45.503Z,4.64
2023-01-19T18:16:15.555Z,4.54
2023-01-19T18:18:44.958Z,4.38
2023-01-19T18:21:14.813Z,4.29
2023-01-19T18:23:46.831Z,4.47
2023-01-19T18:26:18.235Z,4.56
2023-01-19T18:28:47.704Z,4.52
2023-01-19T18:31:17.593Z,4.50
2023-01-19T18:33:46.929Z,4.54
2023-01-19T18:36:16.324Z,4.50
2023-01-19T18:38:48.700Z,4.57
2023-01-19T18:41:18.633Z,4.57
2023-01-19T18:43:48.087Z,4.47
2023-01-19T18:46:17.517Z,4.50
2023-01-19T18:48:46.883Z,4.54
2023-01-19T18:51:22.245Z,4.58
2023-01-19T18:53:54.232Z,4.59
2023-01-19T18:56:23.655Z,4.44
2023-01-19T18:58:53.311Z,4.65
2023-01-19T19:01:24.317Z,4.78
2023-01-19T19:03:53.842Z,4.85
2023-01-19T19:06:23.311Z,4.92
2023-01-19T19:08:55.777Z,4.93
2023-01-19T19:11:26.104Z,4.94
2023-01-19T19:13:56.078Z,4.99
2023-01-19T19:16:25.514Z,5.02
2023-01-19T19:18:59.885Z,5.06
2023-01-19T19:21:29.369Z,5.11
2023-01-19T19:24:01.741Z,5.11
2023-01-19T19:26:31.499Z,5.09
2023-01-19T19:29:02.430Z,5.09
2023-01-19T19:31:32.155Z,5.10
2023-01-19T19:34:01.859Z,5.06
2023-01-19T19:36:31.860Z,5.06
2023-01-19T19:39:04.004Z,5.06
2023-01-19T19:41:33.388Z,5.03
2023-01-19T19:44:02.778Z,5.00
2023-01-19T19:46:32.255Z,5.04
2023-01-19T19:49:01.695Z,5.10
2023-01-19T19:51:31.308Z,5.13
2023-01-19T19:54:01.568Z,5.17
2023-01-19T19:56:34.516Z,5.22
2023-01-19T19:59:03.961Z,5.23
2023-01-19T20:01:35.998Z,5.27
2023-01-19T20:04:09.157Z,5.23
2023-01-19T20:06:40.048Z,5.29
2023-01-19T20:09:10.467Z,5.27
2023-01-19T20:11:42.753Z,5.24
2023-01-19T20:14:13.148Z,5.21
2023-01-19T20:16:42.836Z,5.15
2023-01-19T20:19:12.472Z,5.08
2023-01-19T20:21:42.385Z,4.98
2023-01-19T20:24:13.249Z,4.90
2023-01-19T20:26:49.870Z,4.81
2023-01-19T20:29:19.433Z,4.71
2023-01-19T20:31:49.495Z,4.66
2023-01-19T20:34:19.463Z,4.61
2023-01-19T20:36:50.486Z,4.56
2023-01-19T20:39:19.966Z,4.47
2023-01-19T20:41:54.711Z,4.39
2023-01-19T20:44:24.838Z,4.30
2023-01-19T20:46:54.454Z,4.28
2023-01-19T20:49:26.940Z,4.27
2023-01-19T20:51:56.420Z,4.26
2023-01-19T20:54:30.596Z,4.21
2023-01-19T20:57:02.714Z,4.18
2023-01-19T20:59:34.171Z,4.03
2023-01-19T21:02:03.641Z,3.96
2023-01-19T21:04:33.112Z,3.96
2023-01-19T21:07:02.429Z,3.87
2023-01-19T21:09:31.767Z,3.80
2023-01-19T21:12:03.880Z,3.75
2023-01-19T21:14:33.400Z,3.71
2023-01-19T21:17:03.188Z,3.67
2023-01-19T21:19:35.576Z,3.71
2023-01-19T21:22:07.994Z,3.69
2023-01-19T21:24:37.529Z,3.60
2023-01-19T21:27:16.892Z,3.54
2023-01-19T21:29:46.376Z,3.56
2023-01-19T21:32:18.707Z,3.54
2023-01-19T21:34:53.374Z,3.50
2023-01-19T21:37:49.995Z,3.45
2023-01-19T21:40:22.654Z,3.31
2023-01-19T21:43:00.315Z,3.33
2023-01-19T21:45:29.694Z,3.38
2023-01-19T21:47:58.971Z,3.42
2023-01-19T21:50:28.564Z,3.42
2023-01-19T21:52:58.134Z,3.41
2023-01-19T21:55:27.817Z,3.37
2023-01-19T21:57:59.952Z,3.36
2023-01-19T22:00:47.070Z,3.35
2023-01-19T22:03:16.412Z,3.39
2023-01-19T22:05:45.835Z,3.37
2023-01-19T22:08:15.235Z,3.32
2023-01-19T22:10:44.651Z,3.31
2023-01-19T22:13:16.648Z,3.31
2023-01-19T22:15:46.041Z,3.28
2023-01-19T22:18:15.379Z,3.24
2023-01-19T22:20:44.761Z,3.27
2023-01-19T22:23:14.091Z,3.23
2023-01-19T22:25:43.469Z,3.16
2023-01-19T22:28:12.901Z,3.19
2023-01-19T22:30:45.011Z,3.16
2023-01-19T22:33:14.433Z,3.13
2023-01-19T22:35:43.862Z,3.09
2023-01-19T22:38:13.222Z,3.08
2023-01-19T22:40:42.593Z,3.07
2023-01-19T22:43:12.274Z,3.02
2023-01-19T22:45:45.837Z,3.03
2023-01-19T22:48:15.154Z,3.00
2023-01-19T22:50:44.595Z,2.99
2023-01-19T22:53:13.945Z,2.99
2023-01-19T22:55:43.328Z,2.97
2023-01-19T22:58:23.231Z,2.97
2023-01-19T23:00:55.392Z,2.96
2023-01-19T23:03:24.836Z,2.88
2023-01-19T23:05:54.336Z,2.86
2023-01-19T23:08:23.791Z,2.85
2023-01-19T23:10:53.153Z,2.82
2023-01-19T23:13:22.605Z,2.79
2023-01-19T23:15:51.943Z,2.76
2023-01-19T23:18:24.002Z,2.72
2023-01-19T23:20:53.399Z,2.79
2023-01-19T23:23:22.882Z,2.78
2023-01-19T23:25:52.308Z,2.75
2023-01-19T23:28:21.702Z,2.73
2023-01-19T23:30:51.214Z,2.71
2023-01-19T23:33:20.593Z,2.63
2023-01-19T23:35:52.615Z,2.68
2023-01-19T23:38:22.642Z,2.68
2023-01-19T23:40:52.146Z,2.65
2023-01-19T23:43:21.386Z,2.64
2023-01-19T23:45:50.837Z,2.68
2023-01-19T23:48:20.244Z,2.70
2023-01-19T23:50:52.382Z,2.69
2023-01-19T23:53:21.748Z,2.66
2023-01-19T23:55:51.220Z,2.69
2023-01-19T23:58:20.651Z,2.67
